createdAt,value
2022-08-09T00:00:00.500Z,19.7383
2022-08-09T00:01:10.443Z,19.71578
2022-08-09T00:02:15.108Z,19.74908
2022-08-09T00:04:10.049Z,19.87056
2022-08-09T00:06:19.075Z,19.75194
2022-08-09T00:07:23.685Z,19.68153
2022-08-09T00:08:32.924Z,19.74813
2022-08-09T00:09:34.081Z,19.84963
2022-08-09T00:10:37.727Z,19.91845
2022-08-09T00:11:56.929Z,19.92099
2022-08-09T00:13:04.842Z,19.88769
2022-08-09T00:14:21.935Z,19.88737
2022-08-09T00:15:59.486Z,19.81188
2022-08-09T00:17:03.278Z,19.80776
2022-08-09T00:18:05.036Z,19.83472
2022-08-09T00:19:11.935Z,19.80903
2022-08-09T00:20:13.308Z,19.83155
2022-08-09T00:21:15.851Z,19.90957
2022-08-09T00:22:18.244Z,19.89562
2022-08-09T00:23:57.369Z,19.93399
2022-08-09T00:25:00.827Z,19.87183
2022-08-09T00:26:05.439Z,19.92321
2022-08-09T00:27:06.163Z,19.81728
2022-08-09T00:28:07.015Z,19.81474
2022-08-09T00:29:12.549Z,19.81728
2022-08-09T00:30:40.707Z,19.83504
2022-08-09T00:31:58.328Z,19.73164
2022-08-09T00:33:02.388Z,19.81728
2022-08-09T00:34:04.573Z,19.75257
2022-08-09T00:35:05.992Z,19.76431
2022-08-09T00:36:06.732Z,19.68248
2022-08-09T00:37:09.012Z,19.73418
2022-08-09T00:38:10.235Z,19.82267
2022-08-09T00:40:01.940Z,19.90291
2022-08-09T00:44:10.202Z,20.07164
2022-08-09T00:45:25.626Z,19.71356
2022-08-09T00:46:28.667Z,19.72783
2022-08-09T00:47:57.521Z,19.76685
2022-08-09T00:49:00.178Z,19.7291
2022-08-09T00:50:01.594Z,19.78968
2022-08-09T00:51:02.215Z,19.73132
2022-08-09T00:52:15.930Z,19.88293
2022-08-09T00:53:18.598Z,19.94509
2022-08-09T00:54:35.118Z,19.85914
2022-08-09T00:56:05.164Z,19.65869
2022-08-09T00:57:11.087Z,19.61524
2022-08-09T00:58:14.677Z,19.65267
2022-08-09T00:59:40.377Z,19.62254
2022-08-09T01:00:42.745Z,19.61841
2022-08-09T01:01:44.394Z,19.6127
2022-08-09T01:02:45.869Z,19.52041
2022-08-09T01:03:46.773Z,19.49091
2022-08-09T01:04:47.715Z,19.43414
2022-08-09T01:05:53.830Z,19.4205
2022-08-09T01:06:55.831Z,19.38783
2022-08-09T01:08:00.281Z,19.39481
2022-08-09T01:09:01.866Z,19.35802
2022-08-09T01:10:02.561Z,19.3669
2022-08-09T01:11:03.156Z,19.38466
2022-08-09T01:12:03.812Z,19.42209
2022-08-09T01:13:04.647Z,19.36753
2022-08-09T01:14:08.175Z,19.39481
2022-08-09T01:15:17.599Z,19.37832
2022-08-09T01:16:18.635Z,19.21942
2022-08-09T01:17:19.291Z,19.20736
2022-08-09T01:18:30.339Z,19.23623
2022-08-09T01:19:42.864Z,19.195
2022-08-09T01:20:52.495Z,19.31076
2022-08-09T01:21:53.879Z,19.31203
2022-08-09T01:22:55.220Z,19.33042
2022-08-09T01:24:01.810Z,19.25113
2022-08-09T01:25:05.271Z,19.25811
2022-08-09T01:26:07.846Z,19.3447
2022-08-09T01:27:08.714Z,19.21244
2022-08-09T01:28:10.584Z,19.25906
2022-08-09T01:29:12.321Z,19.27492
2022-08-09T01:30:28.617Z,19.13791
2022-08-09T01:32:30.802Z,19.03895
2022-08-09T01:33:34.131Z,19.05481
2022-08-09T01:34:35.977Z,19.06496
2022-08-09T01:35:39.176Z,19.06464
2022-08-09T01:36:43.146Z,19.09604
2022-08-09T01:38:07.923Z,19.05227
2022-08-09T01:39:11.626Z,18.99074
2022-08-09T01:40:14.012Z,18.92001
2022-08-09T01:41:25.975Z,18.96537
2022-08-09T01:42:27.265Z,19.0269
2022-08-09T01:43:30.268Z,19.01421
2022-08-09T01:44:32.370Z,19.07225
2022-08-09T01:45:33.211Z,18.89242
2022-08-09T01:46:36.447Z,18.90193
2022-08-09T01:47:44.883Z,18.90193
2022-08-09T01:48:45.746Z,18.90511
2022-08-09T01:49:50.969Z,18.81059
2022-08-09T01:50:55.552Z,18.84929
2022-08-09T01:51:58.078Z,18.83311
2022-08-09T01:53:19.182Z,18.80583
2022-08-09T01:54:20.878Z,18.71481
2022-08-09T01:55:22.021Z,18.69705
2022-08-09T01:56:22.642Z,18.64598
2022-08-09T01:57:23.229Z,18.64186
2022-08-09T01:58:26.375Z,18.71195
2022-08-09T01:59:32.585Z,18.6888
2022-08-09T02:00:34.793Z,18.69578
2022-08-09T02:02:00.380Z,18.73289
2022-08-09T02:03:01.385Z,18.72971
2022-08-09T02:04:02.526Z,18.67262
2022-08-09T02:05:05.535Z,18.71798
2022-08-09T02:06:12.668Z,18.6869
2022-08-09T02:08:34.564Z,18.66787
2022-08-09T02:09:42.328Z,18.66279
2022-08-09T02:10:51.163Z,18.68246
2022-08-09T02:11:52.461Z,18.68024
2022-08-09T02:12:53.070Z,18.78839
2022-08-09T02:14:06.914Z,18.74367
2022-08-09T02:15:08.471Z,18.70054
2022-08-09T02:16:16.200Z,18.81218
2022-08-09T02:17:59.457Z,18.83818
2022-08-09T02:19:10.637Z,18.75382
2022-08-09T02:20:11.256Z,18.66818
2022-08-09T02:21:17.076Z,18.70466
2022-08-09T02:22:19.048Z,18.61332
2022-08-09T02:23:28.289Z,18.66026
2022-08-09T02:24:33.543Z,18.58953
2022-08-09T02:25:42.365Z,18.50802
2022-08-09T02:26:46.667Z,18.57272
2022-08-09T02:28:00.435Z,18.58667
2022-08-09T02:29:05.628Z,18.59238
2022-08-09T02:30:07.848Z,18.56891
2022-08-09T02:31:09.184Z,18.58255
2022-08-09T02:32:10.047Z,18.53973
2022-08-09T02:33:14.549Z,18.51658
2022-08-09T02:34:25.762Z,18.52768
2022-08-09T02:36:01.427Z,18.50485
2022-08-09T02:37:03.279Z,18.57874
2022-08-09T02:38:04.577Z,18.60983
2022-08-09T02:39:05.286Z,18.75287
2022-08-09T02:40:27.145Z,18.62505
2022-08-09T02:41:31.431Z,18.50358
2022-08-09T02:42:34.777Z,18.43919
2022-08-09T02:43:42.649Z,18.38242
2022-08-09T02:44:56.117Z,18.33326
2022-08-09T02:45:57.579Z,18.37386
2022-08-09T02:46:58.215Z,18.28759
2022-08-09T02:47:59.766Z,18.25397
2022-08-09T02:49:01.268Z,18.25873
2022-08-09T02:50:03.499Z,18.15058
2022-08-09T02:51:04.918Z,18.10998
2022-08-09T02:52:05.540Z,18.05638
2022-08-09T02:53:08.429Z,18.06748
2022-08-09T02:54:09.193Z,18.15977
2022-08-09T02:55:21.095Z,18.12489
2022-08-09T02:56:22.109Z,18.03989
2022-08-09T02:57:25.003Z,18.19085
2022-08-09T02:58:36.945Z,18.3025
2022-08-09T02:59:38.420Z,18.19466
2022-08-09T03:01:15.164Z,18.20259
2022-08-09T03:02:22.680Z,18.17627
2022-08-09T03:03:37.323Z,18.20957
2022-08-09T03:05:16.810Z,18.1677
2022-08-09T03:06:17.873Z,18.06462
2022-08-09T03:07:18.883Z,18.14201
2022-08-09T03:08:19.517Z,18.16834
2022-08-09T03:09:20.364Z,18.23716
2022-08-09T03:10:21.212Z,18.17595
2022-08-09T03:12:04.739Z,18.15787
2022-08-09T03:13:08.547Z,18.04877
2022-08-09T03:14:10.467Z,18.05448
2022-08-09T03:15:11.284Z,18.10015
2022-08-09T03:16:12.164Z,18.01483
2022-08-09T03:17:16.361Z,17.85625
2022-08-09T03:18:30.560Z,17.78425
2022-08-09T03:19:58.371Z,17.88099
2022-08-09T03:21:01.875Z,17.83278
2022-08-09T03:22:03.373Z,17.93649
2022-08-09T03:23:15.030Z,17.92032
2022-08-09T03:24:31.606Z,17.91524
2022-08-09T03:25:58.093Z,18.08017
2022-08-09T03:26:59.754Z,18.22447
2022-08-09T03:28:02.839Z,18.4468
2022-08-09T03:29:09.728Z,18.59365
2022-08-09T03:30:14.523Z,18.75731
2022-08-09T03:31:30.907Z,18.89147
2022-08-09T03:32:32.283Z,18.97964
2022-08-09T03:33:52.964Z,19.03483
2022-08-09T03:34:55.845Z,19.01072
2022-08-09T03:36:13.142Z,19.02943
2022-08-09T03:37:55.521Z,19.05322
2022-08-09T03:38:59.055Z,19.06623
2022-08-09T03:39:59.753Z,19.07796
2022-08-09T03:41:01.524Z,19.10238
2022-08-09T03:42:06.866Z,19.13473
2022-08-09T03:43:07.796Z,19.14679
2022-08-09T03:44:09.200Z,19.13949
2022-08-09T03:45:10.125Z,19.10936
2022-08-09T03:46:20.588Z,19.08843
2022-08-09T03:47:28.137Z,19.03705
2022-08-09T03:48:37.488Z,18.93936
2022-08-09T03:49:58.171Z,18.91938
2022-08-09T03:50:59.680Z,18.91526
2022-08-09T03:52:03.734Z,18.93111
2022-08-09T03:53:05.308Z,18.93175
2022-08-09T03:54:06.018Z,18.96664
2022-08-09T03:55:14.198Z,18.9863
2022-08-09T03:56:15.443Z,18.99645
2022-08-09T03:57:20.535Z,18.94602
2022-08-09T03:58:21.906Z,18.99582
2022-08-09T03:59:27.379Z,18.99772
2022-08-09T04:00:43.653Z,18.85595
2022-08-09T04:01:44.311Z,18.66882
2022-08-09T04:02:46.338Z,18.54544
2022-08-09T04:04:01.495Z,18.43602
2022-08-09T04:05:06.574Z,18.38432
2022-08-09T04:06:07.691Z,18.55274
2022-08-09T04:07:12.767Z,18.70466
2022-08-09T04:08:15.130Z,18.75096
2022-08-09T04:09:41.811Z,18.74589
2022-08-09T04:10:49.660Z,18.84675
2022-08-09T04:11:50.689Z,18.88639
2022-08-09T04:12:51.600Z,18.9457
2022-08-09T04:14:53.664Z,18.97647
2022-08-09T04:16:19.313Z,18.92318
2022-08-09T04:17:21.980Z,18.84231
2022-08-09T04:18:24.901Z,18.87624
2022-08-09T04:19:30.019Z,18.97139
2022-08-09T04:20:43.809Z,18.98757
2022-08-09T04:21:45.167Z,18.86324
2022-08-09T04:22:48.410Z,18.61014
2022-08-09T04:23:53.967Z,18.36942
2022-08-09T04:24:55.646Z,18.18927
2022-08-09T04:25:56.502Z,18.00912
2022-08-09T04:26:57.581Z,17.94125
2022-08-09T04:28:00.068Z,17.86386
2022-08-09T04:29:10.912Z,17.73287
2022-08-09T04:30:15.540Z,17.62314
2022-08-09T04:31:16.375Z,17.5264
2022-08-09T04:32:23.501Z,17.54099
2022-08-09T04:33:32.214Z,17.54194
2022-08-09T04:34:54.467Z,17.52418
2022-08-09T04:35:58.329Z,17.5023
2022-08-09T04:36:59.437Z,17.44902
2022-08-09T04:38:00.071Z,17.4265
2022-08-09T04:39:04.621Z,17.40779
2022-08-09T04:40:05.307Z,17.36687
2022-08-09T04:41:11.822Z,17.33262
2022-08-09T04:42:15.812Z,17.28949
2022-08-09T04:43:16.874Z,17.25365
2022-08-09T04:44:17.737Z,17.22542
2022-08-09T04:45:20.526Z,17.23811
2022-08-09T04:46:56.708Z,17.28663
2022-08-09T04:48:02.131Z,17.33452
2022-08-09T04:49:05.121Z,17.31613
2022-08-09T04:50:05.868Z,17.29456
2022-08-09T04:51:10.333Z,17.21495
2022-08-09T04:52:11.127Z,17.25206
2022-08-09T04:53:13.405Z,17.26316
2022-08-09T04:54:14.704Z,17.29234
2022-08-09T04:55:16.922Z,17.27077
2022-08-09T04:56:20.434Z,17.29678
2022-08-09T04:57:27.092Z,17.30756
2022-08-09T04:59:01.869Z,17.29868
2022-08-09T05:00:08.760Z,17.35989
2022-08-09T05:01:16.328Z,17.3748
2022-08-09T05:02:19.491Z,17.41286
2022-08-09T05:03:40.107Z,17.49722
2022-08-09T05:04:44.680Z,17.61489
2022-08-09T05:05:52.690Z,17.65454
2022-08-09T05:07:08.135Z,17.70433
2022-08-09T05:08:19.836Z,17.73763
2022-08-09T05:09:20.450Z,17.7205
2022-08-09T05:10:21.820Z,17.78425
2022-08-09T05:11:24.364Z,17.76935
2022-08-09T05:12:33.238Z,17.69672
2022-08-09T05:13:34.325Z,17.60823
2022-08-09T05:14:41.131Z,17.49532
2022-08-09T05:15:48.183Z,17.35958
2022-08-09T05:16:58.959Z,17.28695
2022-08-09T05:18:42.043Z,17.24762
2022-08-09T05:19:59.567Z,17.26538
2022-08-09T05:21:00.383Z,17.32532
2022-08-09T05:22:01.291Z,17.36624
2022-08-09T05:23:54.698Z,17.35577
2022-08-09T05:25:03.375Z,17.46995
2022-08-09T05:26:04.329Z,17.4709
2022-08-09T05:27:05.013Z,17.50452
2022-08-09T05:28:05.842Z,17.51816
2022-08-09T05:29:07.467Z,17.4839
2022-08-09T05:30:19.431Z,17.39542
2022-08-09T05:31:37.104Z,17.43348
2022-08-09T05:32:50.956Z,17.46614
2022-08-09T05:33:53.915Z,17.49056
2022-08-09T05:34:54.518Z,17.5356
2022-08-09T05:35:57.216Z,17.44616
2022-08-09T05:36:57.928Z,17.39193
2022-08-09T05:37:58.554Z,17.32184
2022-08-09T05:38:59.389Z,17.32374
2022-08-09T05:40:00.549Z,17.3932
2022-08-09T05:41:01.539Z,17.46424
2022-08-09T05:42:04.680Z,17.53179
2022-08-09T05:43:06.952Z,17.59332
2022-08-09T05:44:09.132Z,17.67705
2022-08-09T05:45:14.402Z,17.68149
2022-08-09T05:46:15.493Z,17.83056
2022-08-09T05:47:16.216Z,17.92317
2022-08-09T05:48:16.826Z,17.89589
2022-08-09T05:49:33.848Z,17.88575
2022-08-09T05:51:42.768Z,18.1344
2022-08-09T05:52:53.761Z,18.20196
2022-08-09T05:53:57.641Z,18.10173
2022-08-09T05:55:03.295Z,18.06082
2022-08-09T05:56:07.733Z,18.16643
2022-08-09T05:57:12.869Z,18.22447
2022-08-09T05:58:18.506Z,18.21813
2022-08-09T05:59:19.428Z,18.1991
2022-08-09T06:00:21.173Z,18.21179
2022-08-09T06:01:22.847Z,18.286
2022-08-09T06:02:23.709Z,18.2971
2022-08-09T06:03:24.661Z,18.28505
2022-08-09T06:04:35.839Z,18.37766
2022-08-09T06:05:57.143Z,18.39289
2022-08-09T06:07:01.638Z,18.20988
2022-08-09T06:08:05.208Z,18.1233
2022-08-09T06:09:40.777Z,18.09412
2022-08-09T06:11:02.687Z,18.21845
2022-08-09T06:12:18.043Z,18.4097
2022-08-09T06:13:20.701Z,18.48138
2022-08-09T06:14:21.800Z,18.49819
2022-08-09T06:15:22.554Z,18.16263
2022-08-09T06:16:27.447Z,18.02593
2022-08-09T06:17:39.190Z,18.03671
2022-08-09T06:18:41.228Z,18.13186
2022-08-09T06:19:41.880Z,18.18197
2022-08-09T06:20:42.510Z,18.26729
2022-08-09T06:21:50.390Z,18.32121
2022-08-09T06:22:59.124Z,18.41097
2022-08-09T06:24:01.477Z,18.37861
2022-08-09T06:25:03.100Z,18.26634
2022-08-09T06:26:03.781Z,18.21528
2022-08-09T06:27:04.635Z,18.20069
2022-08-09T06:28:05.523Z,18.13503
2022-08-09T06:29:06.152Z,18.04084
2022-08-09T06:30:09.930Z,18.19054
2022-08-09T06:31:11.528Z,18.31011
2022-08-09T06:32:53.195Z,18.40272
2022-08-09T06:34:00.718Z,18.38115
2022-08-09T06:35:01.641Z,18.48042
2022-08-09T06:36:07.555Z,18.5927
2022-08-09T06:37:10.134Z,18.48994
2022-08-09T06:38:11.203Z,18.20354
2022-08-09T06:39:14.876Z,18.26348
2022-08-09T06:40:21.809Z,18.34658
2022-08-09T06:41:39.596Z,18.37259
2022-08-09T06:43:10.617Z,18.37291
2022-08-09T06:44:12.432Z,18.38179
2022-08-09T06:46:06.041Z,18.55369
2022-08-09T06:47:11.377Z,18.61966
2022-08-09T06:48:16.466Z,18.76048
2022-08-09T06:49:22.872Z,18.87688
2022-08-09T06:50:31.201Z,18.84167
2022-08-09T06:51:32.800Z,18.80457
2022-08-09T06:52:39.679Z,18.86102
2022-08-09T06:53:40.445Z,18.9032
2022-08-09T06:54:41.372Z,18.94951
2022-08-09T06:55:42.347Z,18.89845
2022-08-09T06:56:49.178Z,19.00723
2022-08-09T06:58:01.805Z,19.04751
2022-08-09T07:00:50.662Z,19.02468
2022-08-09T07:02:03.658Z,19.03419
2022-08-09T07:03:05.961Z,19.06908
2022-08-09T07:04:06.988Z,19.09255
2022-08-09T07:05:11.274Z,18.9955
2022-08-09T07:06:13.204Z,19.04276
2022-08-09T07:07:58.440Z,19.12839
2022-08-09T07:09:01.855Z,19.41923
2022-08-09T07:10:14.317Z,19.63776
2022-08-09T07:11:23.788Z,19.78048
2022-08-09T07:12:38.574Z,19.5166
2022-08-09T07:14:00.242Z,19.48044
2022-08-09T07:16:34.844Z,19.61461
2022-08-09T07:17:52.709Z,18.90098
2022-08-09T07:18:57.500Z,18.96981
2022-08-09T07:19:58.361Z,18.78807
2022-08-09T07:21:00.613Z,18.89591
2022-08-09T07:22:01.314Z,18.90701
2022-08-09T07:23:02.806Z,18.85595
2022-08-09T07:24:19.153Z,18.87751
2022-08-09T07:25:21.470Z,18.90986
2022-08-09T07:26:22.710Z,18.83628
2022-08-09T07:27:33.609Z,18.8385
2022-08-09T07:28:35.618Z,18.90669
2022-08-09T07:29:38.015Z,18.96346
2022-08-09T07:30:43.356Z,18.97679
2022-08-09T07:31:45.326Z,18.87815
2022-08-09T07:32:48.640Z,18.98091
2022-08-09T07:33:55.734Z,19.07733
2022-08-09T07:34:56.521Z,19.05988
2022-08-09T07:35:58.006Z,19.038
2022-08-09T07:36:59.124Z,19.05513
2022-08-09T07:38:04.080Z,19.07891
2022-08-09T07:39:04.754Z,19.14425
2022-08-09T07:40:12.861Z,18.90479
2022-08-09T07:41:14.023Z,18.57304
2022-08-09T07:42:17.585Z,18.41382
2022-08-09T07:43:18.308Z,18.45315
2022-08-09T07:44:18.901Z,18.55432
2022-08-09T07:45:37.702Z,18.41572
2022-08-09T07:46:40.461Z,18.37322
2022-08-09T07:48:00.864Z,17.99834
2022-08-09T07:49:05.391Z,17.72336
2022-08-09T07:50:09.494Z,17.90097
2022-08-09T07:52:03.642Z,17.6723
2022-08-09T07:53:10.690Z,17.40271
2022-08-09T07:54:11.593Z,17.49913
2022-08-09T07:55:15.107Z,17.68879
2022-08-09T07:56:27.214Z,17.7833
2022-08-09T07:57:33.931Z,17.4525
2022-08-09T07:58:36.926Z,17.62282
2022-08-09T07:59:51.035Z,17.76237
2022-08-09T08:01:06.801Z,17.76364
2022-08-09T08:02:19.093Z,17.92127
2022-08-09T08:03:20.709Z,18.05003
2022-08-09T08:04:31.760Z,18.30567
2022-08-09T08:05:53.554Z,17.82485
2022-08-09T08:06:56.394Z,17.84483
2022-08-09T08:09:01.315Z,17.98248
2022-08-09T08:10:07.848Z,17.85784
2022-08-09T08:12:24.679Z,18.04496
2022-08-09T08:13:28.850Z,17.49437
2022-08-09T08:14:40.862Z,17.67705
2022-08-09T08:15:41.732Z,17.63075
2022-08-09T08:16:51.143Z,17.52609
2022-08-09T08:18:08.004Z,17.34372
2022-08-09T08:19:10.180Z,17.64153
2022-08-09T08:20:13.166Z,17.8591
2022-08-09T08:21:14.215Z,17.93142
2022-08-09T08:22:16.422Z,18.12044
2022-08-09T08:23:17.974Z,18.27871
2022-08-09T08:24:18.895Z,18.38179
2022-08-09T08:25:20.246Z,18.45949
2022-08-09T08:26:26.853Z,18.50231
2022-08-09T08:27:56.223Z,18.26824
2022-08-09T08:28:58.780Z,17.9977
2022-08-09T08:29:59.378Z,17.88511
2022-08-09T08:31:14.189Z,17.69101
2022-08-09T08:32:24.567Z,17.78521
2022-08-09T08:33:40.701Z,17.4525
2022-08-09T08:34:55.388Z,17.33738
2022-08-09T08:36:03.435Z,17.29424
2022-08-09T08:37:04.601Z,17.22003
2022-08-09T08:38:11.647Z,17.42586
2022-08-09T08:39:12.883Z,17.5023
2022-08-09T08:40:18.267Z,17.55114
2022-08-09T08:41:19.753Z,17.15945
2022-08-09T08:42:24.298Z,17.35926
2022-08-09T08:43:33.167Z,17.34277
2022-08-09T08:44:36.782Z,17.49881
2022-08-09T08:45:38.097Z,17.3821
2022-08-09T08:47:02.364Z,17.34182
2022-08-09T08:48:05.287Z,17.36655
2022-08-09T08:49:06.317Z,17.41445
2022-08-09T08:50:07.183Z,17.57239
2022-08-09T08:51:11.647Z,17.70782
2022-08-09T08:52:20.393Z,17.79504
2022-08-09T08:53:37.365Z,17.93713
2022-08-09T08:54:38.160Z,17.86576
2022-08-09T08:55:39.220Z,17.97392
2022-08-09T08:56:42.403Z,18.0253
2022-08-09T08:57:43.212Z,18.018
2022-08-09T08:58:56.874Z,18.06462
2022-08-09T08:59:57.659Z,18.12044
2022-08-09T09:00:59.802Z,18.17975
2022-08-09T09:02:02.690Z,17.84007
2022-08-09T09:03:11.102Z,17.9958
2022-08-09T09:04:17.170Z,17.99136
2022-08-09T09:05:57.419Z,18.00246
2022-08-09T09:07:01.937Z,18.09571
2022-08-09T09:08:02.675Z,18.07541
2022-08-09T09:09:20.736Z,18.09697
2022-08-09T09:10:41.684Z,18.23843
2022-08-09T09:11:42.330Z,18.29615
2022-08-09T09:12:44.211Z,18.25968
2022-08-09T09:13:56.526Z,18.23716
2022-08-09T09:14:58.774Z,18.22669
2022-08-09T09:15:59.415Z,18.18293
2022-08-09T09:17:00.301Z,18.24858
2022-08-09T09:18:01.133Z,18.25302
2022-08-09T09:19:29.109Z,18.20386
2022-08-09T09:20:40.362Z,18.25587
2022-08-09T09:21:43.150Z,18.26634
2022-08-09T09:22:44.173Z,18.28664
2022-08-09T09:23:49.813Z,18.30725
2022-08-09T09:26:02.559Z,18.45315
2022-08-09T09:27:21.998Z,18.62568
2022-08-09T09:29:11.328Z,18.68658
2022-08-09T09:30:39.006Z,18.85531
2022-08-09T09:32:06.921Z,18.91272
2022-08-09T09:33:17.854Z,18.5502
2022-08-09T09:34:18.797Z,18.55115
2022-08-09T09:35:19.636Z,18.63615
2022-08-09T09:36:22.096Z,18.75033
2022-08-09T09:37:24.538Z,18.7129
2022-08-09T09:38:36.362Z,18.7554
2022-08-09T09:39:54.591Z,18.70022
2022-08-09T09:40:56.560Z,18.73067
2022-08-09T09:41:57.428Z,18.80901
2022-08-09T09:42:58.078Z,18.76651
2022-08-09T09:44:12.960Z,18.82169
2022-08-09T09:45:26.224Z,18.82677
2022-08-09T09:46:45.658Z,18.76619
2022-08-09T09:47:56.178Z,18.92731
2022-08-09T09:48:57.658Z,18.90669
2022-08-09T09:50:15.169Z,18.95332
2022-08-09T09:51:25.899Z,19.10365
2022-08-09T09:52:39.035Z,19.1471
2022-08-09T09:54:01.655Z,19.23401
2022-08-09T09:55:16.477Z,19.17311
2022-08-09T09:56:31.407Z,19.33264
2022-08-09T09:58:01.515Z,19.30981
2022-08-09T09:59:05.832Z,19.34375
2022-08-09T10:00:06.685Z,19.28285
2022-08-09T10:01:31.402Z,19.37832
2022-08-09T10:02:39.329Z,19.48235
2022-08-09T10:03:40.285Z,19.49662
2022-08-09T10:04:42.943Z,19.46839
2022-08-09T10:06:00.938Z,19.50772
2022-08-09T10:07:09.981Z,19.4519
2022-08-09T10:08:27.818Z,19.56735
2022-08-09T10:09:29.504Z,19.48837
2022-08-09T10:10:32.691Z,19.48679
2022-08-09T10:11:59.414Z,19.58448
2022-08-09T10:13:02.407Z,19.55593
2022-08-09T10:14:03.080Z,19.56513
2022-08-09T10:15:07.662Z,19.65584
2022-08-09T10:16:57.133Z,19.41479
2022-08-09T10:18:00.807Z,19.59367
2022-08-09T10:19:01.872Z,19.58733
2022-08-09T10:20:04.796Z,19.66028
2022-08-09T10:21:05.474Z,19.6127
2022-08-09T10:22:06.483Z,19.60255
2022-08-09T10:23:07.135Z,19.5886
2022-08-09T10:24:09.131Z,19.65901
2022-08-09T10:25:16.842Z,19.69358
2022-08-09T10:26:22.288Z,19.63776
2022-08-09T10:27:28.635Z,19.72815
2022-08-09T10:28:35.572Z,19.70405
2022-08-09T10:30:29.982Z,19.68438
2022-08-09T10:32:42.436Z,19.63681
2022-08-09T10:34:08.704Z,19.69295
2022-08-09T10:35:16.149Z,19.61239
2022-08-09T10:36:16.742Z,19.68407
2022-08-09T10:37:21.282Z,19.60287
2022-08-09T10:38:54.800Z,19.6016
2022-08-09T10:39:57.995Z,19.75733
2022-08-09T10:40:59.470Z,19.60097
2022-08-09T10:42:01.246Z,19.72276
2022-08-09T10:43:04.369Z,19.71325
2022-08-09T10:44:05.014Z,19.76177
2022-08-09T10:45:12.011Z,19.75575
2022-08-09T10:46:19.185Z,19.63364
2022-08-09T10:48:14.379Z,19.51026
2022-08-09T10:49:50.949Z,19.34375
2022-08-09T10:50:54.678Z,19.34723
2022-08-09T10:51:55.615Z,19.35643
2022-08-09T10:53:00.138Z,19.40781
2022-08-09T10:54:04.873Z,19.43065
2022-08-09T10:55:06.264Z,19.45793
2022-08-09T10:56:06.905Z,19.53563
2022-08-09T10:57:07.770Z,19.6403
2022-08-09T10:58:08.609Z,19.73703
2022-08-09T10:59:09.837Z,19.82076
2022-08-09T11:00:15.793Z,19.70722
2022-08-09T11:03:15.056Z,19.72117
2022-08-09T11:04:30.856Z,19.80395
2022-08-09T11:05:32.663Z,19.75955
2022-08-09T11:06:33.920Z,19.5277
2022-08-09T11:07:57.810Z,19.49947
2022-08-09T11:09:15.756Z,19.57179
2022-08-09T11:10:17.126Z,19.56037
2022-08-09T11:11:19.252Z,19.62349
2022-08-09T11:12:20.099Z,19.56703
2022-08-09T11:13:50.994Z,19.59494
2022-08-09T11:15:13.218Z,19.62317
2022-08-09T11:16:35.318Z,19.64252
2022-08-09T11:18:02.659Z,19.73164
2022-08-09T11:19:09.394Z,19.5794
2022-08-09T11:20:22.436Z,19.64315
2022-08-09T11:21:23.882Z,19.64664
2022-08-09T11:22:26.095Z,19.68153
2022-08-09T11:23:30.171Z,19.61746
2022-08-09T11:24:31.163Z,19.49313
2022-08-09T11:25:44.953Z,19.51692
2022-08-09T11:26:54.583Z,19.59304
2022-08-09T11:28:07.902Z,19.72657
2022-08-09T11:30:04.338Z,19.5499
2022-08-09T11:31:07.478Z,19.42906
2022-08-09T11:32:10.311Z,19.34375
2022-08-09T11:33:13.118Z,19.3041
2022-08-09T11:34:15.931Z,19.21593
2022-08-09T11:35:17.712Z,19.18485
2022-08-09T11:36:35.522Z,19.18421
2022-08-09T11:37:41.358Z,19.15091
2022-08-09T11:38:43.726Z,19.24955
2022-08-09T11:39:44.549Z,19.27619
2022-08-09T11:44:05.963Z,19.5258
2022-08-09T11:45:07.358Z,19.5664
2022-08-09T11:46:08.043Z,19.50677
2022-08-09T11:47:11.103Z,19.50233
2022-08-09T11:48:25.208Z,19.47632
2022-08-09T11:49:28.090Z,19.57813
2022-08-09T11:50:53.385Z,19.61841
2022-08-09T11:53:03.270Z,19.57179
2022-08-09T11:55:00.977Z,19.65742
2022-08-09T11:56:02.191Z,19.7031
2022-08-09T11:57:03.688Z,19.76399
2022-08-09T11:58:08.377Z,19.75923
2022-08-09T11:59:11.981Z,19.75733
2022-08-09T12:00:16.405Z,19.87468
2022-08-09T12:01:37.828Z,19.92384
2022-08-09T12:03:54.717Z,19.83187
2022-08-09T12:04:59.226Z,19.98569
2022-08-09T12:06:00.459Z,20.00853
2022-08-09T12:07:01.060Z,20.05801
2022-08-09T12:08:01.714Z,20.11732
2022-08-09T12:09:04.781Z,20.19978
2022-08-09T12:10:05.469Z,20.1982
2022-08-09T12:11:15.538Z,20.29144
2022-08-09T12:12:28.918Z,20.39801
2022-08-09T12:14:09.189Z,20.27178
2022-08-09T12:15:12.536Z,20.1059
2022-08-09T12:16:30.367Z,19.98791
2022-08-09T12:17:43.419Z,19.87754
2022-08-09T12:18:53.661Z,19.78841
2022-08-09T12:19:59.557Z,19.72276
2022-08-09T12:21:02.742Z,19.62507
2022-08-09T12:22:03.678Z,19.61492
2022-08-09T12:23:05.440Z,19.55403
2022-08-09T12:24:09.412Z,19.54895
2022-08-09T12:25:10.376Z,19.66028
2022-08-09T12:26:11.628Z,19.64632
2022-08-09T12:29:15.410Z,19.61841
2022-08-09T12:30:38.454Z,19.59716
2022-08-09T12:31:58.554Z,19.59177
2022-08-09T12:33:03.505Z,19.61429
2022-08-09T12:34:04.122Z,19.57369
2022-08-09T12:35:04.958Z,19.53119
2022-08-09T12:36:27.510Z,19.59906
2022-08-09T12:37:32.335Z,19.59653
2022-08-09T12:38:38.039Z,19.6127
2022-08-09T12:39:39.094Z,19.56449
2022-08-09T12:40:39.722Z,19.58892
2022-08-09T12:41:40.607Z,19.63332
2022-08-09T12:42:41.276Z,19.71166
2022-08-09T12:44:06.325Z,19.80903
2022-08-09T12:45:33.387Z,19.84328
2022-08-09T12:46:38.577Z,19.8547
2022-08-09T12:47:44.269Z,19.85597
2022-08-09T12:48:50.850Z,19.84963
2022-08-09T12:49:53.095Z,19.87405
2022-08-09T12:50:57.181Z,19.875
2022-08-09T12:52:02.767Z,19.89562
2022-08-09T12:53:09.350Z,19.84868
2022-08-09T12:54:19.114Z,19.76304
2022-08-09T12:56:13.681Z,19.80935
2022-08-09T12:57:30.313Z,19.75638
2022-08-09T12:58:42.809Z,19.75004
2022-08-09T13:00:02.787Z,19.79412
2022-08-09T13:01:04.969Z,19.78334
2022-08-09T13:02:07.191Z,19.7475
2022-08-09T13:03:24.546Z,19.73164
2022-08-09T13:04:54.900Z,19.7291
2022-08-09T13:06:15.936Z,19.6552
2022-08-09T13:07:19.978Z,19.60382
2022-08-09T13:08:40.342Z,19.58416
2022-08-09T13:09:43.459Z,19.67741
2022-08-09T13:10:56.751Z,19.71261
2022-08-09T13:12:01.570Z,19.70088
2022-08-09T13:13:10.769Z,19.77351
2022-08-09T13:14:40.854Z,19.7494
2022-08-09T13:15:46.077Z,19.79951
2022-08-09T13:16:46.674Z,19.81125
2022-08-09T13:17:58.799Z,19.79983
2022-08-09T13:19:05.684Z,19.87246
2022-08-09T13:20:14.036Z,19.875
2022-08-09T13:22:36.845Z,19.96254
2022-08-09T13:24:17.015Z,20.01011
2022-08-09T13:25:52.900Z,20.04278
2022-08-09T13:26:55.789Z,20.06276
2022-08-09T13:27:56.726Z,20.01963
2022-08-09T13:29:01.877Z,19.99711
2022-08-09T13:30:48.688Z,19.98918
2022-08-09T13:32:19.577Z,19.97047
2022-08-09T13:33:52.944Z,19.91179
2022-08-09T13:34:53.988Z,19.99426
2022-08-09T13:36:37.348Z,20.05991
2022-08-09T13:37:51.751Z,20.13857
2022-08-09T13:38:57.410Z,20.14174
2022-08-09T13:41:46.954Z,20.14015
2022-08-09T13:42:57.761Z,20.18551
2022-08-09T13:43:58.477Z,20.13857
2022-08-09T13:44:59.804Z,20.09353
2022-08-09T13:46:43.015Z,20.18329
2022-08-09T13:48:18.942Z,20.39833
2022-08-09T13:49:19.533Z,20.45574
2022-08-09T13:50:30.362Z,20.49189
2022-08-09T13:51:32.170Z,20.59656
2022-08-09T13:52:33.716Z,20.52266
2022-08-09T13:53:43.626Z,20.52266